Terminal Aerodrome Forecast
Issued by NWS Amarillo, TX

Home | Current Version | Previous Version | Text Only | Print | Product List | Glossary On
Versions: 1 2 3 4 5 6 7 8 9 10 11 12 13 14 15 16 17 18 19 20 21
000
FTUS44 KAMA 240640 AAA
TAFGUY
TAF AMD
KGUY 240640Z 2407/2506 10011KT 2SM BR OVC003
      TEMPO 2407/2410 1SM BR
     FM241400 29010KT 5SM BR OVC004
     FM241800 33020G30KT P6SM SCT300
     FM242200 33011KT P6SM SKC
     FM250300 14006KT P6SM SKC=

USA.gov is the U.S. government's official web portal to all federal, state and local government web resources and services.